sensor_id;sensor_type;location;lat;lon;timestamp;P1;durP1;ratioP1;P2;durP2;ratioP2
69910;SDS011;63555;49.920;17.868;2022-10-31T00:01:31;10.87;;;4.73;;
69910;SDS011;63555;49.920;17.868;2022-10-31T00:04:02;9.57;;;4.70;;
69910;SDS011;63555;49.920;17.868;2022-10-31T00:06:28;11.10;;;4.93;;
69910;SDS011;63555;49.920;17.868;2022-10-31T00:08:54;9.80;;;4.40;;
69910;SDS011;63555;49.920;17.868;2022-10-31T00:11:21;10.32;;;4.22;;
69910;SDS011;63555;49.920;17.868;2022-10-31T00:13:47;9.88;;;4.22;;
69910;SDS011;63555;49.920;17.868;2022-10-31T00:16:16;13.27;;;4.57;;
69910;SDS011;63555;49.920;17.868;2022-10-31T00:18:43;10.65;;;4.15;;
69910;SDS011;63555;49.920;17.868;2022-10-31T00:21:09;9.93;;;4.47;;
69910;SDS011;63555;49.920;17.868;2022-10-31T00:23:34;9.85;;;5.00;;
69910;SDS011;63555;49.920;17.868;2022-10-31T00:26:03;11.73;;;4.50;;
69910;SDS011;63555;49.920;17.868;2022-10-31T00:28:29;14.63;;;4.88;;
69910;SDS011;63555;49.920;17.868;2022-10-31T00:31:03;17.87;;;4.37;;
69910;SDS011;63555;49.920;17.868;2022-10-31T00:33:30;9.02;;;3.80;;
69910;SDS011;63555;49.920;17.868;2022-10-31T00:35:55;13.88;;;4.30;;
69910;SDS011;63555;49.920;17.868;2022-10-31T00:38:21;10.95;;;5.03;;
69910;SDS011;63555;49.920;17.868;2022-10-31T00:40:47;14.35;;;4.93;;
69910;SDS011;63555;49.920;17.868;2022-10-31T00:43:13;11.63;;;4.10;;
69910;SDS011;63555;49.920;17.868;2022-10-31T00:45:38;12.50;;;4.00;;
69910;SDS011;63555;49.920;17.868;2022-10-31T00:48:04;12.77;;;5.03;;
69910;SDS011;63555;49.920;17.868;2022-10-31T00:50:30;13.27;;;4.95;;
69910;SDS011;63555;49.920;17.868;2022-10-31T00:52:55;12.67;;;5.33;;
69910;SDS011;63555;49.920;17.868;2022-10-31T00:55:21;14.00;;;4.75;;
69910;SDS011;63555;49.920;17.868;2022-10-31T00:57:47;16.80;;;5.30;;
69910;SDS011;63555;49.920;17.868;2022-10-31T01:00:13;14.53;;;4.70;;
69910;SDS011;63555;49.920;17.868;2022-10-31T01:02:39;10.75;;;4.70;;
69910;SDS011;63555;49.920;17.868;2022-10-31T01:05:05;9.23;;;4.63;;
69910;SDS011;63555;49.920;17.868;2022-10-31T01:07:30;10.57;;;4.78;;
69910;SDS011;63555;49.920;17.868;2022-10-31T01:09:56;12.93;;;4.73;;
69910;SDS011;63555;49.920;17.868;2022-10-31T01:12:21;10.27;;;4.57;;
69910;SDS011;63555;49.920;17.868;2022-10-31T01:14:46;10.40;;;4.53;;
69910;SDS011;63555;49.920;17.868;2022-10-31T01:17:12;9.87;;;4.43;;
69910;SDS011;63555;49.920;17.868;2022-10-31T01:19:38;10.85;;;4.80;;
69910;SDS011;63555;49.920;17.868;2022-10-31T01:22:04;10.43;;;4.90;;
69910;SDS011;63555;49.920;17.868;2022-10-31T01:24:29;16.63;;;4.67;;
69910;SDS011;63555;49.920;17.868;2022-10-31T01:26:55;16.27;;;4.77;;
69910;SDS011;63555;49.920;17.868;2022-10-31T01:29:20;11.32;;;4.40;;
69910;SDS011;63555;49.920;17.868;2022-10-31T01:31:46;10.17;;;4.23;;
69910;SDS011;63555;49.920;17.868;2022-10-31T01:34:15;9.10;;;4.47;;
69910;SDS011;63555;49.920;17.868;2022-10-31T01:36:42;10.05;;;4.30;;
69910;SDS011;63555;49.920;17.868;2022-10-31T01:39:13;8.03;;;4.17;;
69910;SDS011;63555;49.920;17.868;2022-10-31T01:41:44;11.20;;;4.20;;
69910;SDS011;63555;49.920;17.868;2022-10-31T01:46:40;10.30;;;3.95;;
69910;SDS011;63555;49.920;17.868;2022-10-31T01:52:04;15.77;;;4.87;;
69910;SDS011;63555;49.920;17.868;2022-10-31T01:54:35;9.70;;;4.30;;
69910;SDS011;63555;49.920;17.868;2022-10-31T01:57:08;9.57;;;4.05;;
69910;SDS011;63555;49.920;17.868;2022-10-31T01:59:39;9.77;;;4.60;;
69910;SDS011;63555;49.920;17.868;2022-10-31T02:02:10;12.23;;;4.65;;
69910;SDS011;63555;49.920;17.868;2022-10-31T02:04:36;10.77;;;4.50;;
69910;SDS011;63555;49.920;17.868;2022-10-31T02:07:02;9.75;;;4.47;;
69910;SDS011;63555;49.920;17.868;2022-10-31T02:09:31;12.15;;;4.80;;
69910;SDS011;63555;49.920;17.868;2022-10-31T02:11:57;8.83;;;4.43;;
69910;SDS011;63555;49.920;17.868;2022-10-31T02:14:25;12.80;;;4.45;;
69910;SDS011;63555;49.920;17.868;2022-10-31T02:16:53;13.38;;;4.65;;
69910;SDS011;63555;49.920;17.868;2022-10-31T02:19:44;11.80;;;4.22;;
69910;SDS011;63555;49.920;17.868;2022-10-31T02:31:03;11.82;;;4.68;;
69910;SDS011;63555;49.920;17.868;2022-10-31T02:33:48;12.27;;;4.53;;
69910;SDS011;63555;49.920;17.868;2022-10-31T02:46:34;10.80;;;4.13;;
69910;SDS011;63555;49.920;17.868;2022-10-31T02:49:05;9.98;;;3.80;;
69910;SDS011;63555;49.920;17.868;2022-10-31T02:51:38;12.23;;;4.07;;
69910;SDS011;63555;49.920;17.868;2022-10-31T02:54:04;10.07;;;4.65;;
69910;SDS011;63555;49.920;17.868;2022-10-31T02:56:30;10.33;;;3.90;;
69910;SDS011;63555;49.920;17.868;2022-10-31T02:58:58;11.57;;;3.50;;
69910;SDS011;63555;49.920;17.868;2022-10-31T03:11:46;14.10;;;3.67;;
69910;SDS011;63555;49.920;17.868;2022-10-31T03:17:04;10.40;;;4.30;;
69910;SDS011;63555;49.920;17.868;2022-10-31T03:19:34;10.05;;;4.10;;
69910;SDS011;63555;49.920;17.868;2022-10-31T03:22:06;8.95;;;3.80;;
69910;SDS011;63555;49.920;17.868;2022-10-31T03:24:40;9.38;;;3.83;;
69910;SDS011;63555;49.920;17.868;2022-10-31T03:27:08;9.33;;;3.63;;
69910;SDS011;63555;49.920;17.868;2022-10-31T03:29:36;9.10;;;3.80;;
69910;SDS011;63555;49.920;17.868;2022-10-31T03:32:08;8.82;;;4.60;;
69910;SDS011;63555;49.920;17.868;2022-10-31T03:34:38;10.45;;;4.22;;
69910;SDS011;63555;49.920;17.868;2022-10-31T03:37:07;8.32;;;3.85;;
69910;SDS011;63555;49.920;17.868;2022-10-31T03:39:36;12.30;;;4.20;;
69910;SDS011;63555;49.920;17.868;2022-10-31T03:42:14;11.88;;;3.85;;
69910;SDS011;63555;49.920;17.868;2022-10-31T03:44:42;13.73;;;3.50;;
69910;SDS011;63555;49.920;17.868;2022-10-31T03:47:13;11.23;;;4.07;;
69910;SDS011;63555;49.920;17.868;2022-10-31T03:49:39;12.20;;;4.35;;
69910;SDS011;63555;49.920;17.868;2022-10-31T03:54:44;7.37;;;3.70;;
69910;SDS011;63555;49.920;17.868;2022-10-31T03:59:59;10.02;;;3.83;;
69910;SDS011;63555;49.920;17.868;2022-10-31T04:02:32;10.20;;;4.35;;
69910;SDS011;63555;49.920;17.868;2022-10-31T04:05:00;15.98;;;4.40;;
69910;SDS011;63555;49.920;17.868;2022-10-31T04:07:29;13.30;;;5.00;;
69910;SDS011;63555;49.920;17.868;2022-10-31T04:09:58;12.70;;;3.95;;
69910;SDS011;63555;49.920;17.868;2022-10-31T04:12:27;8.60;;;4.10;;
69910;SDS011;63555;49.920;17.868;2022-10-31T04:14:54;8.73;;;3.70;;
69910;SDS011;63555;49.920;17.868;2022-10-31T04:17:23;11.80;;;3.97;;
69910;SDS011;63555;49.920;17.868;2022-10-31T04:19:53;8.87;;;3.73;;
69910;SDS011;63555;49.920;17.868;2022-10-31T04:22:18;11.85;;;3.88;;
69910;SDS011;63555;49.920;17.868;2022-10-31T04:24:44;11.67;;;4.10;;
69910;SDS011;63555;49.920;17.868;2022-10-31T04:27:09;11.33;;;3.90;;
69910;SDS011;63555;49.920;17.868;2022-10-31T04:29:34;10.57;;;3.47;;
69910;SDS011;63555;49.920;17.868;2022-10-31T04:32:00;10.83;;;3.70;;
69910;SDS011;63555;49.920;17.868;2022-10-31T04:34:25;14.47;;;3.63;;
69910;SDS011;63555;49.920;17.868;2022-10-31T04:36:51;10.67;;;3.80;;
69910;SDS011;63555;49.920;17.868;2022-10-31T04:39:16;8.10;;;3.50;;
69910;SDS011;63555;49.920;17.868;2022-10-31T04:41:41;10.93;;;3.53;;
69910;SDS011;63555;49.920;17.868;2022-10-31T04:44:07;10.07;;;3.60;;
69910;SDS011;63555;49.920;17.868;2022-10-31T04:46:32;8.15;;;3.75;;
69910;SDS011;63555;49.920;17.868;2022-10-31T04:48:58;10.73;;;3.63;;
69910;SDS011;63555;49.920;17.868;2022-10-31T04:51:23;10.47;;;4.43;;
69910;SDS011;63555;49.920;17.868;2022-10-31T04:53:49;7.83;;;3.13;;
69910;SDS011;63555;49.920;17.868;2022-10-31T04:56:14;8.95;;;3.72;;
69910;SDS011;63555;49.920;17.868;2022-10-31T04:58:39;9.33;;;3.97;;
69910;SDS011;63555;49.920;17.868;2022-10-31T05:01:05;9.80;;;4.03;;
69910;SDS011;63555;49.920;17.868;2022-10-31T05:03:30;10.73;;;3.70;;
69910;SDS011;63555;49.920;17.868;2022-10-31T05:05:56;12.80;;;4.10;;
69910;SDS011;63555;49.920;17.868;2022-10-31T05:08:21;9.82;;;3.15;;
69910;SDS011;63555;49.920;17.868;2022-10-31T05:10:47;11.57;;;4.63;;
69910;SDS011;63555;49.920;17.868;2022-10-31T05:13:12;9.53;;;4.10;;
69910;SDS011;63555;49.920;17.868;2022-10-31T05:15:39;10.20;;;3.13;;
69910;SDS011;63555;49.920;17.868;2022-10-31T05:18:05;12.88;;;4.28;;
69910;SDS011;63555;49.920;17.868;2022-10-31T05:20:30;9.57;;;4.10;;
69910;SDS011;63555;49.920;17.868;2022-10-31T05:22:57;8.43;;;3.93;;
69910;SDS011;63555;49.920;17.868;2022-10-31T05:25:24;11.45;;;3.95;;
69910;SDS011;63555;49.920;17.868;2022-10-31T05:27:52;7.57;;;3.92;;
69910;SDS011;63555;49.920;17.868;2022-10-31T05:30:19;11.70;;;4.38;;
69910;SDS011;63555;49.920;17.868;2022-10-31T05:32:48;12.18;;;4.15;;
69910;SDS011;63555;49.920;17.868;2022-10-31T05:35:16;17.00;;;4.17;;
69910;SDS011;63555;49.920;17.868;2022-10-31T05:37:43;10.70;;;4.15;;
69910;SDS011;63555;49.920;17.868;2022-10-31T05:40:10;9.93;;;3.95;;
69910;SDS011;63555;49.920;17.868;2022-10-31T05:42:40;9.88;;;3.88;;
69910;SDS011;63555;49.920;17.868;2022-10-31T05:45:07;10.35;;;3.88;;
69910;SDS011;63555;49.920;17.868;2022-10-31T05:47:34;10.90;;;3.78;;
69910;SDS011;63555;49.920;17.868;2022-10-31T05:49:59;9.43;;;3.70;;
69910;SDS011;63555;49.920;17.868;2022-10-31T05:52:24;9.90;;;3.70;;
69910;SDS011;63555;49.920;17.868;2022-10-31T05:54:50;8.03;;;4.13;;
69910;SDS011;63555;49.920;17.868;2022-10-31T05:57:15;14.98;;;4.50;;
69910;SDS011;63555;49.920;17.868;2022-10-31T05:59:41;9.38;;;3.67;;
69910;SDS011;63555;49.920;17.868;2022-10-31T06:02:06;9.07;;;4.10;;
69910;SDS011;63555;49.920;17.868;2022-10-31T06:04:31;8.20;;;3.77;;
69910;SDS011;63555;49.920;17.868;2022-10-31T06:06:57;12.00;;;4.80;;
69910;SDS011;63555;49.920;17.868;2022-10-31T06:09:23;9.95;;;4.20;;
69910;SDS011;63555;49.920;17.868;2022-10-31T06:11:50;9.63;;;3.87;;
69910;SDS011;63555;49.920;17.868;2022-10-31T06:14:16;9.57;;;4.38;;
69910;SDS011;63555;49.920;17.868;2022-10-31T06:16:41;11.63;;;4.90;;
69910;SDS011;63555;49.920;17.868;2022-10-31T06:19:06;11.30;;;4.07;;
69910;SDS011;63555;49.920;17.868;2022-10-31T06:21:32;12.33;;;4.57;;
69910;SDS011;63555;49.920;17.868;2022-10-31T06:23:57;14.02;;;4.53;;
69910;SDS011;63555;49.920;17.868;2022-10-31T06:26:23;9.60;;;4.20;;
69910;SDS011;63555;49.920;17.868;2022-10-31T06:28:48;10.03;;;4.30;;
69910;SDS011;63555;49.920;17.868;2022-10-31T06:31:14;10.17;;;4.10;;
69910;SDS011;63555;49.920;17.868;2022-10-31T06:33:40;14.30;;;4.47;;
69910;SDS011;63555;49.920;17.868;2022-10-31T06:36:07;8.82;;;3.92;;
69910;SDS011;63555;49.920;17.868;2022-10-31T06:38:32;12.60;;;4.60;;
69910;SDS011;63555;49.920;17.868;2022-10-31T06:41:01;10.97;;;4.53;;
69910;SDS011;63555;49.920;17.868;2022-10-31T06:43:28;12.10;;;4.70;;
69910;SDS011;63555;49.920;17.868;2022-10-31T06:45:54;12.47;;;4.87;;
69910;SDS011;63555;49.920;17.868;2022-10-31T06:48:20;12.43;;;4.97;;
69910;SDS011;63555;49.920;17.868;2022-10-31T06:50:45;11.15;;;4.55;;
69910;SDS011;63555;49.920;17.868;2022-10-31T06:53:11;14.43;;;4.93;;
69910;SDS011;63555;49.920;17.868;2022-10-31T06:55:36;11.53;;;4.90;;
69910;SDS011;63555;49.920;17.868;2022-10-31T06:58:01;16.97;;;5.20;;
69910;SDS011;63555;49.920;17.868;2022-10-31T07:00:28;13.47;;;5.37;;
69910;SDS011;63555;49.920;17.868;2022-10-31T07:03:01;12.77;;;4.78;;
69910;SDS011;63555;49.920;17.868;2022-10-31T07:05:32;11.50;;;4.53;;
69910;SDS011;63555;49.920;17.868;2022-10-31T07:07:59;11.00;;;4.93;;
69910;SDS011;63555;49.920;17.868;2022-10-31T07:10:26;17.48;;;4.78;;
69910;SDS011;63555;49.920;17.868;2022-10-31T07:12:57;11.63;;;4.75;;
69910;SDS011;63555;49.920;17.868;2022-10-31T07:15:27;13.95;;;5.60;;
69910;SDS011;63555;49.920;17.868;2022-10-31T07:17:58;11.25;;;5.07;;
69910;SDS011;63555;49.920;17.868;2022-10-31T07:20:24;12.23;;;5.33;;
69910;SDS011;63555;49.920;17.868;2022-10-31T07:22:50;15.65;;;6.18;;
69910;SDS011;63555;49.920;17.868;2022-10-31T07:25:15;12.73;;;5.30;;
69910;SDS011;63555;49.920;17.868;2022-10-31T07:27:41;15.37;;;6.40;;
69910;SDS011;63555;49.920;17.868;2022-10-31T07:30:08;11.65;;;5.60;;
69910;SDS011;63555;49.920;17.868;2022-10-31T07:32:42;15.17;;;5.47;;
69910;SDS011;63555;49.920;17.868;2022-10-31T07:35:15;16.75;;;5.35;;
69910;SDS011;63555;49.920;17.868;2022-10-31T07:37:51;15.32;;;5.38;;
69910;SDS011;63555;49.920;17.868;2022-10-31T07:40:17;11.97;;;5.40;;
69910;SDS011;63555;49.920;17.868;2022-10-31T07:42:44;14.18;;;5.28;;
69910;SDS011;63555;49.920;17.868;2022-10-31T07:45:14;13.52;;;4.88;;
69910;SDS011;63555;49.920;17.868;2022-10-31T07:47:44;14.52;;;4.28;;
69910;SDS011;63555;49.920;17.868;2022-10-31T07:50:15;12.35;;;3.90;;
69910;SDS011;63555;49.920;17.868;2022-10-31T07:52:43;14.37;;;5.20;;
69910;SDS011;63555;49.920;17.868;2022-10-31T07:55:08;9.45;;;3.85;;
69910;SDS011;63555;49.920;17.868;2022-10-31T07:57:34;9.87;;;4.40;;
69910;SDS011;63555;49.920;17.868;2022-10-31T08:00:02;13.90;;;4.63;;
69910;SDS011;63555;49.920;17.868;2022-10-31T08:02:31;9.27;;;3.95;;
69910;SDS011;63555;49.920;17.868;2022-10-31T08:04:56;19.33;;;4.30;;
69910;SDS011;63555;49.920;17.868;2022-10-31T08:07:22;8.40;;;3.90;;
69910;SDS011;63555;49.920;17.868;2022-10-31T08:09:47;9.13;;;3.47;;
69910;SDS011;63555;49.920;17.868;2022-10-31T08:12:12;9.27;;;4.00;;
69910;SDS011;63555;49.920;17.868;2022-10-31T08:14:38;9.10;;;3.77;;
69910;SDS011;63555;49.920;17.868;2022-10-31T08:17:03;7.20;;;3.10;;
69910;SDS011;63555;49.920;17.868;2022-10-31T08:19:29;10.27;;;3.40;;
69910;SDS011;63555;49.920;17.868;2022-10-31T08:21:54;7.65;;;3.42;;
69910;SDS011;63555;49.920;17.868;2022-10-31T08:24:23;6.82;;;3.38;;
69910;SDS011;63555;49.920;17.868;2022-10-31T08:26:49;10.38;;;4.03;;
69910;SDS011;63555;49.920;17.868;2022-10-31T08:29:14;12.40;;;3.70;;
69910;SDS011;63555;49.920;17.868;2022-10-31T08:31:40;8.50;;;3.38;;
69910;SDS011;63555;49.920;17.868;2022-10-31T08:34:07;8.70;;;3.80;;
69910;SDS011;63555;49.920;17.868;2022-10-31T08:36:32;11.67;;;3.23;;
69910;SDS011;63555;49.920;17.868;2022-10-31T08:38:58;9.30;;;3.47;;
69910;SDS011;63555;49.920;17.868;2022-10-31T08:41:24;8.60;;;3.10;;
69910;SDS011;63555;49.920;17.868;2022-10-31T08:43:49;8.13;;;3.27;;
69910;SDS011;63555;49.920;17.868;2022-10-31T08:46:15;9.88;;;3.03;;
69910;SDS011;63555;49.920;17.868;2022-10-31T08:48:40;9.07;;;3.47;;
69910;SDS011;63555;49.920;17.868;2022-10-31T08:51:06;8.10;;;3.37;;
69910;SDS011;63555;49.920;17.868;2022-10-31T08:53:32;14.63;;;3.70;;
69910;SDS011;63555;49.920;17.868;2022-10-31T08:55:57;10.47;;;4.00;;
69910;SDS011;63555;49.920;17.868;2022-10-31T08:58:23;10.82;;;4.10;;
69910;SDS011;63555;49.920;17.868;2022-10-31T09:00:50;8.07;;;3.30;;
69910;SDS011;63555;49.920;17.868;2022-10-31T09:03:17;10.43;;;3.58;;
69910;SDS011;63555;49.920;17.868;2022-10-31T09:05:46;8.43;;;3.17;;
69910;SDS011;63555;49.920;17.868;2022-10-31T09:08:12;10.38;;;3.05;;
69910;SDS011;63555;49.920;17.868;2022-10-31T09:10:39;10.13;;;3.70;;
69910;SDS011;63555;49.920;17.868;2022-10-31T09:13:06;9.15;;;3.28;;
69910;SDS011;63555;49.920;17.868;2022-10-31T09:15:35;16.70;;;3.70;;
69910;SDS011;63555;49.920;17.868;2022-10-31T09:18:03;7.57;;;3.45;;
69910;SDS011;63555;49.920;17.868;2022-10-31T09:20:31;9.23;;;3.70;;
69910;SDS011;63555;49.920;17.868;2022-10-31T09:22:58;7.88;;;3.20;;
69910;SDS011;63555;49.920;17.868;2022-10-31T09:25:26;8.48;;;3.90;;
69910;SDS011;63555;49.920;17.868;2022-10-31T09:27:59;8.77;;;3.65;;
69910;SDS011;63555;49.920;17.868;2022-10-31T09:30:26;11.70;;;3.90;;
69910;SDS011;63555;49.920;17.868;2022-10-31T09:32:59;7.33;;;3.67;;
69910;SDS011;63555;49.920;17.868;2022-10-31T09:35:36;7.20;;;3.83;;
69910;SDS011;63555;49.920;17.868;2022-10-31T09:38:23;10.07;;;3.55;;
69910;SDS011;63555;49.920;17.868;2022-10-31T09:45:51;7.83;;;3.73;;
69910;SDS011;63555;49.920;17.868;2022-10-31T09:48:33;7.90;;;3.70;;
69910;SDS011;63555;49.920;17.868;2022-10-31T09:51:04;10.93;;;3.53;;
69910;SDS011;63555;49.920;17.868;2022-10-31T09:56:09;11.45;;;3.63;;
69910;SDS011;63555;49.920;17.868;2022-10-31T09:58:41;7.47;;;3.00;;
69910;SDS011;63555;49.920;17.868;2022-10-31T10:01:15;9.68;;;3.45;;
69910;SDS011;63555;49.920;17.868;2022-10-31T10:03:51;7.90;;;2.97;;
69910;SDS011;63555;49.920;17.868;2022-10-31T10:06:23;9.52;;;3.45;;
69910;SDS011;63555;49.920;17.868;2022-10-31T10:08:52;9.23;;;3.33;;
69910;SDS011;63555;49.920;17.868;2022-10-31T10:14:32;8.35;;;3.40;;
69910;SDS011;63555;49.920;17.868;2022-10-31T10:22:29;11.05;;;3.22;;
69910;SDS011;63555;49.920;17.868;2022-10-31T10:27:48;8.30;;;3.60;;
69910;SDS011;63555;49.920;17.868;2022-10-31T10:30:20;10.30;;;3.40;;
69910;SDS011;63555;49.920;17.868;2022-10-31T10:32:56;9.33;;;4.03;;
69910;SDS011;63555;49.920;17.868;2022-10-31T10:35:25;11.13;;;3.88;;
69910;SDS011;63555;49.920;17.868;2022-10-31T10:37:57;9.52;;;4.28;;
69910;SDS011;63555;49.920;17.868;2022-10-31T10:40:29;7.78;;;4.45;;
69910;SDS011;63555;49.920;17.868;2022-10-31T10:46:36;10.75;;;4.20;;
69910;SDS011;63555;49.920;17.868;2022-10-31T10:51:56;10.93;;;3.70;;
69910;SDS011;63555;49.920;17.868;2022-10-31T10:57:21;11.25;;;4.05;;
69910;SDS011;63555;49.920;17.868;2022-10-31T10:59:47;10.50;;;3.90;;
69910;SDS011;63555;49.920;17.868;2022-10-31T11:02:32;11.45;;;3.67;;
69910;SDS011;63555;49.920;17.868;2022-10-31T11:04:58;11.23;;;3.70;;
69910;SDS011;63555;49.920;17.868;2022-10-31T11:07:36;9.90;;;3.53;;
69910;SDS011;63555;49.920;17.868;2022-10-31T11:10:06;14.43;;;3.90;;
69910;SDS011;63555;49.920;17.868;2022-10-31T11:12:40;14.23;;;3.97;;
69910;SDS011;63555;49.920;17.868;2022-10-31T11:15:17;13.35;;;3.03;;
69910;SDS011;63555;49.920;17.868;2022-10-31T11:17:47;10.10;;;2.87;;
69910;SDS011;63555;49.920;17.868;2022-10-31T11:22:47;14.82;;;3.90;;
69910;SDS011;63555;49.920;17.868;2022-10-31T11:27:46;10.45;;;3.15;;
69910;SDS011;63555;49.920;17.868;2022-10-31T11:30:14;11.37;;;4.30;;
69910;SDS011;63555;49.920;17.868;2022-10-31T11:32:46;9.82;;;3.10;;
69910;SDS011;63555;49.920;17.868;2022-10-31T11:35:16;11.15;;;3.30;;
69910;SDS011;63555;49.920;17.868;2022-10-31T11:37:44;9.02;;;2.80;;
69910;SDS011;63555;49.920;17.868;2022-10-31T11:40:18;13.27;;;3.60;;
69910;SDS011;63555;49.920;17.868;2022-10-31T11:42:47;10.63;;;3.20;;
69910;SDS011;63555;49.920;17.868;2022-10-31T11:45:19;11.70;;;2.90;;
69910;SDS011;63555;49.920;17.868;2022-10-31T11:47:55;6.85;;;3.08;;
69910;SDS011;63555;49.920;17.868;2022-10-31T11:52:49;12.02;;;3.20;;
69910;SDS011;63555;49.920;17.868;2022-10-31T11:55:17;15.27;;;2.90;;
69910;SDS011;63555;49.920;17.868;2022-10-31T11:57:56;8.85;;;3.22;;
69910;SDS011;63555;49.920;17.868;2022-10-31T12:00:28;11.07;;;3.47;;
69910;SDS011;63555;49.920;17.868;2022-10-31T12:03:10;6.45;;;3.03;;
69910;SDS011;63555;49.920;17.868;2022-10-31T12:05:53;9.18;;;3.95;;
69910;SDS011;63555;49.920;17.868;2022-10-31T12:08:24;9.23;;;3.30;;
69910;SDS011;63555;49.920;17.868;2022-10-31T12:11:01;8.50;;;3.10;;
69910;SDS011;63555;49.920;17.868;2022-10-31T12:13:51;14.07;;;2.75;;
69910;SDS011;63555;49.920;17.868;2022-10-31T12:16:43;11.18;;;2.60;;
69910;SDS011;63555;49.920;17.868;2022-10-31T12:24:40;8.25;;;2.90;;
69910;SDS011;63555;49.920;17.868;2022-10-31T12:27:34;9.80;;;2.75;;
69910;SDS011;63555;49.920;17.868;2022-10-31T12:30:08;10.18;;;2.95;;
69910;SDS011;63555;49.920;17.868;2022-10-31T12:52:50;9.70;;;3.00;;
69910;SDS011;63555;49.920;17.868;2022-10-31T12:55:38;7.78;;;2.67;;
69910;SDS011;63555;49.920;17.868;2022-10-31T13:01:15;9.90;;;3.20;;
69910;SDS011;63555;49.920;17.868;2022-10-31T13:06:39;8.80;;;2.80;;
69910;SDS011;63555;49.920;17.868;2022-10-31T13:09:11;7.97;;;2.58;;
69910;SDS011;63555;49.920;17.868;2022-10-31T13:11:47;10.10;;;2.55;;
69910;SDS011;63555;49.920;17.868;2022-10-31T13:16:46;13.33;;;3.47;;
69910;SDS011;63555;49.920;17.868;2022-10-31T13:19:23;13.57;;;3.25;;
69910;SDS011;63555;49.920;17.868;2022-10-31T13:21:55;11.00;;;3.05;;
69910;SDS011;63555;49.920;17.868;2022-10-31T13:24:41;8.63;;;2.88;;
69910;SDS011;63555;49.920;17.868;2022-10-31T13:27:30;10.15;;;3.15;;
69910;SDS011;63555;49.920;17.868;2022-10-31T13:41:00;9.32;;;3.17;;
69910;SDS011;63555;49.920;17.868;2022-10-31T13:46:36;13.00;;;2.67;;
69910;SDS011;63555;49.920;17.868;2022-10-31T13:49:03;13.80;;;2.85;;
69910;SDS011;63555;49.920;17.868;2022-10-31T13:51:33;10.40;;;3.10;;
69910;SDS011;63555;49.920;17.868;2022-10-31T13:54:23;10.52;;;3.10;;
69910;SDS011;63555;49.920;17.868;2022-10-31T13:56:50;10.00;;;3.30;;
69910;SDS011;63555;49.920;17.868;2022-10-31T14:04:32;11.88;;;3.38;;
69910;SDS011;63555;49.920;17.868;2022-10-31T14:07:13;11.20;;;3.50;;
69910;SDS011;63555;49.920;17.868;2022-10-31T14:15:17;10.15;;;3.03;;
69910;SDS011;63555;49.920;17.868;2022-10-31T14:22:41;14.13;;;2.90;;
69910;SDS011;63555;49.920;17.868;2022-10-31T14:28:22;9.65;;;3.40;;
69910;SDS011;63555;49.920;17.868;2022-10-31T14:30:57;10.55;;;3.35;;
69910;SDS011;63555;49.920;17.868;2022-10-31T14:33:25;10.77;;;4.07;;
69910;SDS011;63555;49.920;17.868;2022-10-31T14:35:56;10.60;;;3.75;;
69910;SDS011;63555;49.920;17.868;2022-10-31T14:38:52;11.70;;;3.47;;
69910;SDS011;63555;49.920;17.868;2022-10-31T14:41:41;14.68;;;3.42;;
69910;SDS011;63555;49.920;17.868;2022-10-31T14:52:39;14.60;;;4.63;;
69910;SDS011;63555;49.920;17.868;2022-10-31T14:55:10;18.00;;;4.47;;
69910;SDS011;63555;49.920;17.868;2022-10-31T14:57:42;12.48;;;4.40;;
69910;SDS011;63555;49.920;17.868;2022-10-31T15:00:19;11.95;;;4.20;;
69910;SDS011;63555;49.920;17.868;2022-10-31T15:05:42;11.80;;;4.53;;
69910;SDS011;63555;49.920;17.868;2022-10-31T15:08:27;15.05;;;4.53;;
69910;SDS011;63555;49.920;17.868;2022-10-31T15:10:54;13.40;;;4.60;;
69910;SDS011;63555;49.920;17.868;2022-10-31T15:13:20;15.70;;;4.90;;
69910;SDS011;63555;49.920;17.868;2022-10-31T15:15:47;16.55;;;4.70;;
69910;SDS011;63555;49.920;17.868;2022-10-31T15:18:19;14.95;;;4.63;;
69910;SDS011;63555;49.920;17.868;2022-10-31T15:20:47;12.00;;;4.43;;
69910;SDS011;63555;49.920;17.868;2022-10-31T15:23:17;15.40;;;4.80;;
69910;SDS011;63555;49.920;17.868;2022-10-31T15:25:58;13.48;;;4.93;;
69910;SDS011;63555;49.920;17.868;2022-10-31T15:28:28;12.60;;;4.18;;
69910;SDS011;63555;49.920;17.868;2022-10-31T15:30:55;12.07;;;3.90;;
69910;SDS011;63555;49.920;17.868;2022-10-31T15:33:23;11.82;;;4.63;;
69910;SDS011;63555;49.920;17.868;2022-10-31T15:35:57;13.57;;;4.23;;
69910;SDS011;63555;49.920;17.868;2022-10-31T15:38:25;14.02;;;4.22;;
69910;SDS011;63555;49.920;17.868;2022-10-31T15:43:20;16.58;;;5.10;;
69910;SDS011;63555;49.920;17.868;2022-10-31T15:45:46;13.15;;;5.10;;
69910;SDS011;63555;49.920;17.868;2022-10-31T15:48:13;15.93;;;4.77;;
69910;SDS011;63555;49.920;17.868;2022-10-31T15:50:55;16.58;;;5.38;;
69910;SDS011;63555;49.920;17.868;2022-10-31T15:53:22;15.23;;;4.90;;
69910;SDS011;63555;49.920;17.868;2022-10-31T15:55:59;19.35;;;5.43;;
69910;SDS011;63555;49.920;17.868;2022-10-31T15:58:32;12.38;;;5.07;;
69910;SDS011;63555;49.920;17.868;2022-10-31T16:01:06;15.02;;;5.03;;
69910;SDS011;63555;49.920;17.868;2022-10-31T16:06:51;14.33;;;5.30;;
69910;SDS011;63555;49.920;17.868;2022-10-31T16:09:24;15.68;;;5.25;;
69910;SDS011;63555;49.920;17.868;2022-10-31T16:11:50;16.55;;;5.55;;
69910;SDS011;63555;49.920;17.868;2022-10-31T16:14:17;13.15;;;5.43;;
69910;SDS011;63555;49.920;17.868;2022-10-31T16:16:48;14.00;;;5.20;;
69910;SDS011;63555;49.920;17.868;2022-10-31T16:19:21;16.60;;;6.10;;
69910;SDS011;63555;49.920;17.868;2022-10-31T16:22:03;19.05;;;7.00;;
69910;SDS011;63555;49.920;17.868;2022-10-31T16:24:33;18.67;;;8.05;;
69910;SDS011;63555;49.920;17.868;2022-10-31T16:27:20;16.20;;;6.60;;
69910;SDS011;63555;49.920;17.868;2022-10-31T16:29:53;16.00;;;7.15;;
69910;SDS011;63555;49.920;17.868;2022-10-31T16:32:30;19.30;;;8.23;;
69910;SDS011;63555;49.920;17.868;2022-10-31T16:35:40;20.30;;;8.80;;
69910;SDS011;63555;49.920;17.868;2022-10-31T16:37:52;18.85;;;9.43;;
69910;SDS011;63555;49.920;17.868;2022-10-31T16:40:18;20.57;;;8.60;;
69910;SDS011;63555;49.920;17.868;2022-10-31T16:42:44;22.60;;;10.65;;
69910;SDS011;63555;49.920;17.868;2022-10-31T16:45:19;26.20;;;11.57;;
69910;SDS011;63555;49.920;17.868;2022-10-31T16:47:46;33.38;;;12.93;;
69910;SDS011;63555;49.920;17.868;2022-10-31T16:52:45;26.77;;;12.52;;
69910;SDS011;63555;49.920;17.868;2022-10-31T16:55:12;26.58;;;11.63;;
69910;SDS011;63555;49.920;17.868;2022-10-31T16:57:42;27.83;;;10.47;;
69910;SDS011;63555;49.920;17.868;2022-10-31T17:00:17;23.80;;;10.98;;
69910;SDS011;63555;49.920;17.868;2022-10-31T17:02:44;34.10;;;13.90;;
69910;SDS011;63555;49.920;17.868;2022-10-31T17:05:11;37.22;;;13.18;;
69910;SDS011;63555;49.920;17.868;2022-10-31T17:07:38;33.80;;;14.25;;
69910;SDS011;63555;49.920;17.868;2022-10-31T17:10:04;38.00;;;13.63;;
69910;SDS011;63555;49.920;17.868;2022-10-31T17:12:30;37.35;;;15.48;;
69910;SDS011;63555;49.920;17.868;2022-10-31T17:14:56;44.35;;;16.20;;
69910;SDS011;63555;49.920;17.868;2022-10-31T17:17:21;47.97;;;16.10;;
69910;SDS011;63555;49.920;17.868;2022-10-31T17:19:47;52.20;;;19.15;;
69910;SDS011;63555;49.920;17.868;2022-10-31T17:22:13;44.17;;;17.65;;
69910;SDS011;63555;49.920;17.868;2022-10-31T17:24:39;34.03;;;13.20;;